createdAt,value
2018-04-30T00:01:24.100Z,15.80
2018-04-30T00:03:53.467Z,15.80
2018-04-30T00:06:21.783Z,15.80
2018-04-30T00:08:50.019Z,15.80
2018-04-30T00:11:18.260Z,15.70
2018-04-30T00:13:46.531Z,15.70
2018-04-30T00:16:15.903Z,15.70
2018-04-30T00:18:44.142Z,15.70
2018-04-30T00:21:12.421Z,15.70
2018-04-30T00:23:40.655Z,15.60
2018-04-30T00:28:39.191Z,15.60
2018-04-30T00:31:08.559Z,15.60
2018-04-30T00:33:36.834Z,15.60
2018-04-30T00:36:06.616Z,15.50
2018-04-30T00:38:34.846Z,15.50
2018-04-30T00:41:03.898Z,15.40
2018-04-30T00:43:33.308Z,15.40
2018-04-30T00:46:01.545Z,15.40
2018-04-30T00:48:29.779Z,15.40
2018-04-30T00:50:59.487Z,15.40
2018-04-30T00:53:27.716Z,15.30
2018-04-30T00:55:55.955Z,15.30
2018-04-30T00:58:24.239Z,15.30
2018-04-30T01:00:52.479Z,15.20
2018-04-30T01:03:22.223Z,15.20
2018-04-30T01:05:50.494Z,15.20
2018-04-30T01:08:19.127Z,15.20
2018-04-30T01:10:47.367Z,15.20
2018-04-30T01:13:16.418Z,15.20
2018-04-30T01:15:44.652Z,15.20
2018-04-30T01:18:12.887Z,15.20
2018-04-30T01:20:41.179Z,15.30
2018-04-30T01:23:09.424Z,15.30
2018-04-30T01:25:37.654Z,15.30
2018-04-30T01:28:05.935Z,15.30
2018-04-30T01:30:34.175Z,15.30
2018-04-30T01:33:03.551Z,15.30
2018-04-30T01:35:31.891Z,15.30
2018-04-30T01:38:00.850Z,15.30
2018-04-30T01:40:30.239Z,15.40
2018-04-30T01:42:58.531Z,15.30
2018-04-30T01:45:27.907Z,15.40
2018-04-30T01:47:56.195Z,15.40
2018-04-30T01:50:25.195Z,15.40
2018-04-30T01:52:54.204Z,15.40
2018-04-30T01:55:23.254Z,15.40
2018-04-30T01:57:51.491Z,15.40
2018-04-30T02:02:49.667Z,15.40
2018-04-30T02:07:47.380Z,15.40
2018-04-30T02:10:17.194Z,15.50
2018-04-30T02:12:45.426Z,15.50
2018-04-30T02:15:15.177Z,15.50
2018-04-30T02:17:43.454Z,15.50
2018-04-30T02:20:12.454Z,15.50
2018-04-30T02:22:40.697Z,15.50
2018-04-30T02:25:09.762Z,15.50
2018-04-30T02:27:38.007Z,15.50
2018-04-30T02:30:07.016Z,15.50
2018-04-30T02:32:36.078Z,15.50
2018-04-30T02:35:04.312Z,15.50
2018-04-30T02:37:32.558Z,15.50
2018-04-30T02:40:00.899Z,15.50
2018-04-30T02:44:59.405Z,15.50
2018-04-30T02:49:57.139Z,15.40
2018-04-30T02:52:25.378Z,15.40
2018-04-30T02:57:23.162Z,15.30
2018-04-30T02:59:52.166Z,15.30
2018-04-30T03:02:21.583Z,15.30
2018-04-30T03:04:49.822Z,15.30
2018-04-30T03:09:49.333Z,15.20
2018-04-30T03:12:17.919Z,15.20
2018-04-30T03:14:46.151Z,15.20
2018-04-30T03:17:14.435Z,15.20
2018-04-30T03:19:42.675Z,15.20
2018-04-30T03:22:10.912Z,15.20
2018-04-30T03:24:40.330Z,15.20
2018-04-30T03:27:08.572Z,15.20
2018-04-30T03:32:07.451Z,15.10
2018-04-30T03:34:35.696Z,15.10
2018-04-30T03:37:03.928Z,15.10
2018-04-30T03:39:32.227Z,15.10
2018-04-30T03:42:01.231Z,15.10
2018-04-30T03:44:29.467Z,15.00
2018-04-30T03:49:28.347Z,15.00
2018-04-30T03:51:57.719Z,15.00
2018-04-30T03:54:26.771Z,15.00
2018-04-30T03:59:26.011Z,15.00
2018-04-30T04:02:06.033Z,15.00
2018-04-30T04:04:46.356Z,14.90
2018-04-30T04:07:14.600Z,14.90
2018-04-30T04:09:42.835Z,14.90
2018-04-30T04:12:12.622Z,15.00
2018-04-30T04:14:40.860Z,15.00
2018-04-30T04:17:09.105Z,15.00
2018-04-30T04:19:37.387Z,14.90
2018-04-30T04:22:05.631Z,14.90
2018-04-30T04:24:33.863Z,14.90
2018-04-30T04:27:02.183Z,14.90
2018-04-30T04:29:31.558Z,14.90
2018-04-30T04:31:59.801Z,14.90
2018-04-30T04:34:28.559Z,14.90
2018-04-30T04:36:56.795Z,14.80
2018-04-30T04:39:25.045Z,14.90
2018-04-30T04:46:53.002Z,14.80
2018-04-30T04:49:22.424Z,14.80
2018-04-30T04:51:50.666Z,14.90
2018-04-30T04:54:19.299Z,14.90
2018-04-30T04:56:48.746Z,14.90
2018-04-30T04:59:16.983Z,14.90
2018-04-30T05:01:46.727Z,14.90
2018-04-30T05:04:15.783Z,14.90
2018-04-30T05:06:44.024Z,14.90
2018-04-30T05:09:13.767Z,14.90
2018-04-30T05:11:42.047Z,14.90
2018-04-30T05:14:10.286Z,14.80
2018-04-30T05:19:08.039Z,14.80
2018-04-30T05:21:36.275Z,14.90
2018-04-30T05:24:04.514Z,14.90
2018-04-30T05:26:33.952Z,14.80
2018-04-30T05:29:02.583Z,14.80
2018-04-30T05:31:32.323Z,14.80
2018-04-30T05:34:00.626Z,14.80
2018-04-30T05:36:28.859Z,14.80
2018-04-30T05:38:57.094Z,14.90
2018-04-30T05:43:54.843Z,14.90
2018-04-30T05:46:23.077Z,14.90
2018-04-30T05:48:51.351Z,15.00
2018-04-30T05:51:19.590Z,14.90
2018-04-30T05:53:47.823Z,15.00
2018-04-30T05:56:17.223Z,14.90
2018-04-30T05:58:45.459Z,15.00
2018-04-30T06:01:14.499Z,15.00
2018-04-30T06:03:44.231Z,15.00
2018-04-30T06:06:12.460Z,15.00
2018-04-30T06:08:40.736Z,15.00
2018-04-30T06:13:40.450Z,15.00
2018-04-30T06:16:08.720Z,15.00
2018-04-30T06:18:37.331Z,15.00
2018-04-30T06:21:06.358Z,15.00
2018-04-30T06:23:34.575Z,15.00
2018-04-30T06:26:02.807Z,15.10
2018-04-30T06:28:31.059Z,15.00
2018-04-30T06:30:59.286Z,15.10
2018-04-30T06:33:27.538Z,15.10
2018-04-30T06:35:55.812Z,15.20
2018-04-30T06:38:24.030Z,15.20
2018-04-30T06:43:21.762Z,15.10
2018-04-30T06:45:51.507Z,15.10
2018-04-30T06:48:20.551Z,15.20
2018-04-30T06:53:19.788Z,15.10
2018-04-30T06:55:48.907Z,15.10
2018-04-30T06:58:17.898Z,15.00
2018-04-30T07:03:16.386Z,15.00
2018-04-30T07:05:44.615Z,15.00
2018-04-30T07:08:12.855Z,14.90
2018-04-30T07:13:10.595Z,15.00
2018-04-30T07:15:38.829Z,15.00
2018-04-30T07:18:07.867Z,15.00
2018-04-30T07:23:05.589Z,15.10
2018-04-30T07:25:33.821Z,15.10
2018-04-30T07:28:02.045Z,15.10
2018-04-30T07:30:30.290Z,15.10
2018-04-30T07:32:58.524Z,15.10
2018-04-30T07:35:27.556Z,15.00
2018-04-30T07:37:55.786Z,15.10
2018-04-30T07:40:24.787Z,15.00
2018-04-30T07:42:53.067Z,15.10
2018-04-30T07:45:22.065Z,15.00
2018-04-30T07:47:50.292Z,15.00
2018-04-30T07:50:18.568Z,15.00
2018-04-30T07:52:46.797Z,15.00
2018-04-30T07:55:15.015Z,15.00
2018-04-30T07:57:43.270Z,15.00
2018-04-30T08:00:11.500Z,15.00
2018-04-30T08:02:39.774Z,15.00
2018-04-30T08:05:08.006Z,15.00
2018-04-30T08:07:37.007Z,14.90
2018-04-30T08:10:05.290Z,14.90
2018-04-30T08:12:33.523Z,14.90
2018-04-30T08:15:01.754Z,15.00
2018-04-30T08:17:30.030Z,15.00
2018-04-30T08:19:58.256Z,15.00
2018-04-30T08:22:26.487Z,15.00
2018-04-30T08:27:24.987Z,15.10
2018-04-30T08:29:53.218Z,15.20
2018-04-30T08:32:22.254Z,15.20
2018-04-30T08:34:50.484Z,15.20
2018-04-30T08:37:18.702Z,15.30
2018-04-30T08:39:46.963Z,15.40
2018-04-30T08:42:15.183Z,15.40
2018-04-30T08:44:43.451Z,15.40
2018-04-30T08:49:41.180Z,15.40
2018-04-30T08:52:10.231Z,15.40
2018-04-30T08:54:39.231Z,15.30
2018-04-30T08:57:07.487Z,15.20
2018-04-30T08:59:36.428Z,15.20
2018-04-30T09:04:35.607Z,15.10
2018-04-30T09:07:04.634Z,15.30
2018-04-30T09:09:34.042Z,15.40
2018-04-30T09:12:02.255Z,15.40
2018-04-30T09:14:30.518Z,15.50
2018-04-30T09:16:58.747Z,15.50
2018-04-30T09:19:27.368Z,15.60
2018-04-30T09:21:58.842Z,15.60
2018-04-30T09:26:56.911Z,15.60
2018-04-30T09:29:25.197Z,15.60
2018-04-30T09:31:54.927Z,15.60
2018-04-30T09:34:23.150Z,15.60
2018-04-30T09:36:51.418Z,15.60
2018-04-30T09:41:49.493Z,15.90
2018-04-30T09:44:17.755Z,15.90
2018-04-30T09:46:45.987Z,16.00
2018-04-30T09:51:44.899Z,16.20
2018-04-30T09:54:13.118Z,16.40
2018-04-30T09:59:11.991Z,16.80
2018-04-30T10:01:40.987Z,17.00
2018-04-30T10:04:10.751Z,17.00
2018-04-30T10:06:40.515Z,17.00
2018-04-30T10:09:08.745Z,16.90
2018-04-30T10:11:36.995Z,16.90
2018-04-30T10:14:05.267Z,16.80
2018-04-30T10:19:03.714Z,16.90
2018-04-30T10:21:33.487Z,17.00
2018-04-30T10:24:01.715Z,16.90
2018-04-30T10:26:29.943Z,17.00
2018-04-30T10:28:58.223Z,17.30
2018-04-30T10:31:26.435Z,17.60
2018-04-30T10:33:55.802Z,18.00
2018-04-30T10:36:24.901Z,18.30
2018-04-30T10:38:53.894Z,18.30
2018-04-30T10:41:22.118Z,18.30
2018-04-30T10:43:50.398Z,18.30
2018-04-30T10:46:18.619Z,18.20
2018-04-30T10:51:16.728Z,17.80
2018-04-30T10:53:44.947Z,17.50
2018-04-30T10:56:13.567Z,17.20
2018-04-30T10:58:41.871Z,17.00
2018-04-30T11:01:10.864Z,16.80
2018-04-30T11:03:39.087Z,16.70
2018-04-30T11:06:07.742Z,16.70
2018-04-30T11:11:05.406Z,16.60
2018-04-30T11:13:33.710Z,16.60
2018-04-30T11:16:01.931Z,16.60
2018-04-30T11:18:30.150Z,16.50
2018-04-30T11:20:58.424Z,16.40
2018-04-30T11:23:26.646Z,16.40
2018-04-30T11:25:54.866Z,16.40
2018-04-30T11:28:25.222Z,16.30
2018-04-30T11:33:22.899Z,16.20
2018-04-30T11:38:21.383Z,16.40
2018-04-30T11:40:49.611Z,16.40
2018-04-30T11:43:19.016Z,16.60
2018-04-30T11:48:23.059Z,16.70
2018-04-30T11:50:51.285Z,16.70
2018-04-30T11:53:19.514Z,16.80
2018-04-30T11:55:49.291Z,16.80
2018-04-30T11:58:17.518Z,16.80
2018-04-30T12:00:47.145Z,16.70
2018-04-30T12:03:15.803Z,16.70
2018-04-30T12:05:44.837Z,16.80
2018-04-30T12:08:13.022Z,16.90
2018-04-30T12:10:42.055Z,16.80
2018-04-30T12:13:11.049Z,16.70
2018-04-30T12:15:39.266Z,16.60
2018-04-30T12:18:08.663Z,16.60
2018-04-30T12:20:36.899Z,16.60
2018-04-30T12:23:06.654Z,16.60
2018-04-30T12:25:34.886Z,16.80
2018-04-30T12:28:03.555Z,16.90
2018-04-30T12:30:31.775Z,17.10
2018-04-30T12:33:00.003Z,17.20
2018-04-30T12:35:29.374Z,17.40
2018-04-30T12:37:59.509Z,17.30
2018-04-30T12:40:27.723Z,17.20
2018-04-30T12:42:57.491Z,17.30
2018-04-30T12:45:25.720Z,17.40
2018-04-30T12:47:53.943Z,17.50
2018-04-30T12:50:22.598Z,17.50
2018-04-30T12:52:50.830Z,17.70
2018-04-30T12:55:19.134Z,17.70
2018-04-30T12:57:49.110Z,17.80
2018-04-30T13:00:18.471Z,17.60
2018-04-30T13:02:55.267Z,17.50
2018-04-30T13:07:52.956Z,17.40
2018-04-30T13:10:22.743Z,17.30
2018-04-30T13:12:51.748Z,17.30
2018-04-30T13:15:20.067Z,17.40
2018-04-30T13:17:49.079Z,17.40
2018-04-30T13:20:17.286Z,17.30
2018-04-30T13:22:45.556Z,17.30
2018-04-30T13:25:15.310Z,17.30
2018-04-30T13:27:43.549Z,17.10
2018-04-30T13:30:12.004Z,16.90
2018-04-30T13:32:41.728Z,16.70
2018-04-30T13:35:10.719Z,16.50
2018-04-30T13:37:39.027Z,16.40
2018-04-30T13:40:08.762Z,16.40
2018-04-30T13:42:37.036Z,16.30
2018-04-30T13:45:05.258Z,16.30
2018-04-30T13:47:34.261Z,16.10
2018-04-30T13:50:02.511Z,16.10
2018-04-30T13:52:31.498Z,16.00
2018-04-30T13:54:59.763Z,16.00
2018-04-30T13:57:28.750Z,16.00
2018-04-30T13:59:57.739Z,16.00
2018-04-30T14:02:25.996Z,16.00
2018-04-30T14:04:55.351Z,15.90
2018-04-30T14:07:24.370Z,15.90
2018-04-30T14:09:53.370Z,15.90
2018-04-30T14:12:21.594Z,15.80
2018-04-30T14:14:49.851Z,15.70
2018-04-30T14:17:19.582Z,15.60
2018-04-30T14:19:48.331Z,15.50
2018-04-30T14:22:16.555Z,15.50
2018-04-30T14:24:44.779Z,15.50
2018-04-30T14:27:14.414Z,15.40
2018-04-30T14:32:12.242Z,15.40
2018-04-30T14:34:40.506Z,15.40
2018-04-30T14:37:08.733Z,15.30
2018-04-30T14:39:36.954Z,15.30
2018-04-30T14:44:35.072Z,15.50
2018-04-30T14:47:03.290Z,15.60
2018-04-30T14:49:31.629Z,15.70
2018-04-30T14:51:59.866Z,15.90
2018-04-30T14:54:28.088Z,16.00
2018-04-30T14:56:57.473Z,16.20
2018-04-30T14:59:25.721Z,16.30
2018-04-30T15:01:54.050Z,16.30
2018-04-30T15:04:23.797Z,16.30
2018-04-30T15:06:53.467Z,16.30
2018-04-30T15:09:22.167Z,16.20
2018-04-30T15:14:20.239Z,16.20
2018-04-30T15:19:19.083Z,16.30
2018-04-30T15:21:47.322Z,16.10
2018-04-30T15:24:16.734Z,16.10
2018-04-30T15:26:44.980Z,16.00
2018-04-30T15:29:13.207Z,16.00
2018-04-30T15:31:41.485Z,15.90
2018-04-30T15:34:09.772Z,15.90
2018-04-30T15:36:37.935Z,15.80
2018-04-30T15:39:06.226Z,15.70
2018-04-30T15:41:34.426Z,15.60
2018-04-30T15:44:03.781Z,15.60
2018-04-30T15:46:32.898Z,15.60
2018-04-30T15:49:02.258Z,15.60
2018-04-30T15:51:30.842Z,15.70
2018-04-30T15:54:00.242Z,15.70
2018-04-30T15:56:28.467Z,15.60
2018-04-30T15:58:58.194Z,15.70
2018-04-30T16:01:27.249Z,15.60
2018-04-30T16:03:56.587Z,15.60
2018-04-30T16:06:24.816Z,15.60
2018-04-30T16:08:53.079Z,15.50
2018-04-30T16:11:21.341Z,15.50
2018-04-30T16:13:49.568Z,15.30
2018-04-30T16:18:47.274Z,15.40
2018-04-30T16:21:15.498Z,15.30
2018-04-30T16:23:43.789Z,15.30
2018-04-30T16:28:41.858Z,15.20
2018-04-30T16:31:10.141Z,15.20
2018-04-30T16:33:39.879Z,15.20
2018-04-30T16:36:08.866Z,15.20
2018-04-30T16:38:37.135Z,15.20
2018-04-30T16:41:06.131Z,15.20
2018-04-30T16:43:34.359Z,15.20
2018-04-30T16:46:03.055Z,15.10
2018-04-30T16:48:31.279Z,15.10
2018-04-30T16:50:59.533Z,15.00
2018-04-30T16:53:28.158Z,14.90
2018-04-30T16:55:56.783Z,14.90
2018-04-30T16:58:25.025Z,14.80
2018-04-30T17:00:53.270Z,14.80
2018-04-30T17:03:21.498Z,14.80
2018-04-30T17:05:49.723Z,14.70
2018-04-30T17:08:17.994Z,14.70
2018-04-30T17:10:46.219Z,14.60
2018-04-30T17:13:14.442Z,14.60
2018-04-30T17:15:43.859Z,14.60
2018-04-30T17:18:12.851Z,14.60
2018-04-30T17:20:41.074Z,14.50
2018-04-30T17:23:10.115Z,14.40
2018-04-30T17:25:38.339Z,14.30
2018-04-30T17:28:06.566Z,14.30
2018-04-30T17:30:34.871Z,14.30
2018-04-30T17:33:03.494Z,14.30
2018-04-30T17:35:31.719Z,14.20
2018-04-30T17:38:00.766Z,14.20
2018-04-30T17:42:59.290Z,14.10
2018-04-30T17:47:57.326Z,14.20
2018-04-30T17:50:26.310Z,14.10
2018-04-30T17:52:55.705Z,14.00
2018-04-30T17:55:23.934Z,14.00
2018-04-30T17:57:52.153Z,14.00
2018-04-30T18:00:20.420Z,13.90
2018-04-30T18:02:48.646Z,13.90
2018-04-30T18:05:18.008Z,13.70
2018-04-30T18:07:47.043Z,13.40
2018-04-30T18:12:44.748Z,13.10
2018-04-30T18:15:13.223Z,13.00
2018-04-30T18:17:41.431Z,13.00
2018-04-30T18:20:09.698Z,13.00
2018-04-30T18:22:38.686Z,13.00
2018-04-30T18:25:06.915Z,13.00
2018-04-30T18:27:35.198Z,13.00
2018-04-30T18:30:03.417Z,12.90
2018-04-30T18:32:31.640Z,12.90
2018-04-30T18:34:59.919Z,12.90
2018-04-30T18:39:57.591Z,12.90
2018-04-30T18:42:25.884Z,12.80
2018-04-30T18:44:54.102Z,12.80
2018-04-30T18:47:22.323Z,12.80
2018-04-30T18:49:52.100Z,12.90
2018-04-30T18:52:20.344Z,12.90
2018-04-30T18:54:48.542Z,12.80
2018-04-30T18:57:16.862Z,12.80
2018-04-30T18:59:46.588Z,12.70
2018-04-30T19:02:15.596Z,12.60
2018-04-30T19:04:44.626Z,12.50
2018-04-30T19:07:13.607Z,12.30
2018-04-30T19:09:42.973Z,12.20
2018-04-30T19:12:12.035Z,12.10
2018-04-30T19:14:41.031Z,12.00
2018-04-30T19:17:09.298Z,11.80
2018-04-30T19:19:37.563Z,11.80
2018-04-30T19:22:05.793Z,11.70
2018-04-30T19:24:34.018Z,11.60
2018-04-30T19:27:03.844Z,11.50
2018-04-30T19:29:32.027Z,11.50
2018-04-30T19:32:00.246Z,11.40
2018-04-30T19:34:28.513Z,11.40
2018-04-30T19:36:56.739Z,11.30
2018-04-30T19:39:24.963Z,11.20
2018-04-30T19:41:54.376Z,11.10
2018-04-30T19:44:22.602Z,11.10
2018-04-30T19:46:50.845Z,11.10
2018-04-30T19:49:19.107Z,11.00
2018-04-30T19:51:47.336Z,11.00
2018-04-30T19:54:15.555Z,11.00
2018-04-30T19:56:44.004Z,11.00
2018-04-30T19:59:13.370Z,10.90
2018-04-30T20:01:41.590Z,10.80
2018-04-30T20:04:10.643Z,10.60
2018-04-30T20:06:39.639Z,10.50
2018-04-30T20:09:07.862Z,10.50
2018-04-30T20:11:37.918Z,10.40
2018-04-30T20:14:06.146Z,10.30
2018-04-30T20:16:34.370Z,10.20
2018-04-30T20:19:02.633Z,10.20
2018-04-30T20:21:30.850Z,10.20
2018-04-30T20:23:59.090Z,10.10
2018-04-30T20:26:27.346Z,10.10
2018-04-30T20:28:56.343Z,10.00
2018-04-30T20:31:24.562Z,10.00
2018-04-30T20:33:52.875Z,9.90
2018-04-30T20:36:21.102Z,9.80
2018-04-30T20:38:49.327Z,9.80
2018-04-30T20:41:19.110Z,9.80
2018-04-30T20:43:47.334Z,9.90
2018-04-30T20:46:15.962Z,9.90
2018-04-30T20:51:13.664Z,9.80
2018-04-30T20:53:42.318Z,9.80
2018-04-30T20:56:11.675Z,9.70
2018-04-30T20:58:39.890Z,9.70
2018-04-30T21:01:08.155Z,9.80
2018-04-30T21:03:37.878Z,9.70
2018-04-30T21:06:06.871Z,9.70
2018-04-30T21:08:48.139Z,9.70
2018-04-30T21:11:16.359Z,9.70
2018-04-30T21:13:44.574Z,9.70
2018-04-30T21:16:13.603Z,9.60
2018-04-30T21:18:43.335Z,9.50
2018-04-30T21:21:11.574Z,9.50
2018-04-30T21:26:09.302Z,9.40
2018-04-30T21:28:39.031Z,9.40
2018-04-30T21:31:07.687Z,9.40
2018-04-30T21:33:35.906Z,9.40
2018-04-30T21:36:04.126Z,9.40
2018-04-30T21:38:32.391Z,9.40
2018-04-30T21:41:00.618Z,9.30
2018-04-30T21:43:28.843Z,9.30
2018-04-30T21:45:57.888Z,9.30
2018-04-30T21:48:26.107Z,9.40
2018-04-30T21:50:54.326Z,9.40
2018-04-30T21:53:22.586Z,9.50
2018-04-30T21:55:50.806Z,9.50
2018-04-30T21:58:19.031Z,9.50
2018-04-30T22:00:47.290Z,9.50
2018-04-30T22:05:44.984Z,9.40
2018-04-30T22:08:14.110Z,9.50
2018-04-30T22:10:42.731Z,9.50
2018-04-30T22:13:11.380Z,9.60
2018-04-30T22:15:39.617Z,9.60
2018-04-30T22:18:07.834Z,9.50
2018-04-30T22:20:37.562Z,9.50
2018-04-30T22:23:05.899Z,9.50
2018-04-30T22:25:34.123Z,9.50
2018-04-30T22:28:02.346Z,9.50
2018-04-30T22:30:30.624Z,9.50
2018-04-30T22:32:58.846Z,9.50
2018-04-30T22:35:28.198Z,9.40
2018-04-30T22:37:56.470Z,9.40
2018-04-30T22:40:24.694Z,9.30
2018-04-30T22:42:52.910Z,9.20
2018-04-30T22:47:51.386Z,9.10
2018-04-30T22:50:19.610Z,9.10
2018-04-30T22:52:47.866Z,9.00
2018-04-30T22:57:45.538Z,9.00
2018-04-30T23:00:13.906Z,9.00
2018-04-30T23:02:43.393Z,9.00
2018-04-30T23:05:11.607Z,9.00
2018-04-30T23:07:40.646Z,9.00
2018-04-30T23:10:09.631Z,9.00
2018-04-30T23:12:37.859Z,9.00
2018-04-30T23:15:06.926Z,9.00
2018-04-30T23:17:35.915Z,8.90
2018-04-30T23:20:04.907Z,8.90
2018-04-30T23:22:37.282Z,8.90
2018-04-30T23:25:07.170Z,9.00
2018-04-30T23:27:36.538Z,9.00
2018-04-30T23:30:05.054Z,8.90
2018-04-30T23:32:33.270Z,9.00
2018-04-30T23:35:02.999Z,8.90
2018-04-30T23:37:31.270Z,9.00
2018-04-30T23:39:59.490Z,9.00
2018-04-30T23:42:27.710Z,9.00
2018-04-30T23:44:57.494Z,9.00
2018-04-30T23:49:55.579Z,9.10
2018-04-30T23:52:23.903Z,9.10
2018-04-30T23:54:53.635Z,9.20
2018-04-30T23:59:52.126Z,9.20
